sensor_id;sensor_type;location;lat;lon;timestamp;P1;durP1;ratioP1;P2;durP2;ratioP2
23474;SDS011;11910;52.086;21.066;2022-10-17T00:00:21;22.10;;;16.65;;
23474;SDS011;11910;52.086;21.066;2022-10-17T00:02:46;19.33;;;16.33;;
23474;SDS011;11910;52.086;21.066;2022-10-17T00:05:12;18.98;;;16.38;;
23474;SDS011;11910;52.086;21.066;2022-10-17T00:07:37;18.92;;;16.60;;
23474;SDS011;11910;52.086;21.066;2022-10-17T00:10:04;18.10;;;14.77;;
23474;SDS011;11910;52.086;21.066;2022-10-17T00:12:31;19.52;;;15.65;;
23474;SDS011;11910;52.086;21.066;2022-10-17T00:14:57;22.90;;;16.23;;
23474;SDS011;11910;52.086;21.066;2022-10-17T00:17:22;19.98;;;16.67;;
23474;SDS011;11910;52.086;21.066;2022-10-17T00:19:48;19.75;;;16.30;;
23474;SDS011;11910;52.086;21.066;2022-10-17T00:22:14;19.05;;;15.75;;
23474;SDS011;11910;52.086;21.066;2022-10-17T00:24:39;22.08;;;16.77;;
23474;SDS011;11910;52.086;21.066;2022-10-17T00:27:05;20.02;;;14.85;;
23474;SDS011;11910;52.086;21.066;2022-10-17T00:29:31;19.55;;;16.23;;
23474;SDS011;11910;52.086;21.066;2022-10-17T00:31:56;21.00;;;16.17;;
23474;SDS011;11910;52.086;21.066;2022-10-17T00:34:22;18.15;;;14.98;;
23474;SDS011;11910;52.086;21.066;2022-10-17T00:36:48;18.73;;;15.80;;
23474;SDS011;11910;52.086;21.066;2022-10-17T00:39:14;25.40;;;17.05;;
23474;SDS011;11910;52.086;21.066;2022-10-17T00:41:40;20.27;;;17.17;;
23474;SDS011;11910;52.086;21.066;2022-10-17T00:44:53;21.60;;;16.85;;
23474;SDS011;11910;52.086;21.066;2022-10-17T00:46:57;21.63;;;17.23;;
23474;SDS011;11910;52.086;21.066;2022-10-17T00:49:25;22.33;;;17.02;;
23474;SDS011;11910;52.086;21.066;2022-10-17T00:51:55;20.73;;;15.90;;
23474;SDS011;11910;52.086;21.066;2022-10-17T00:54:26;17.65;;;14.75;;
23474;SDS011;11910;52.086;21.066;2022-10-17T00:56:55;18.73;;;15.00;;
23474;SDS011;11910;52.086;21.066;2022-10-17T00:59:21;18.40;;;16.10;;
23474;SDS011;11910;52.086;21.066;2022-10-17T01:01:56;19.90;;;16.25;;
23474;SDS011;11910;52.086;21.066;2022-10-17T01:04:25;23.02;;;18.00;;
23474;SDS011;11910;52.086;21.066;2022-10-17T01:06:51;19.00;;;16.40;;
23474;SDS011;11910;52.086;21.066;2022-10-17T01:09:17;21.70;;;17.85;;
23474;SDS011;11910;52.086;21.066;2022-10-17T01:11:51;27.63;;;21.00;;
23474;SDS011;11910;52.086;21.066;2022-10-17T01:17:58;21.20;;;17.02;;
23474;SDS011;11910;52.086;21.066;2022-10-17T01:39:21;25.92;;;20.40;;
23474;SDS011;11910;52.086;21.066;2022-10-17T01:41:52;26.70;;;21.15;;
23474;SDS011;11910;52.086;21.066;2022-10-17T01:44:48;27.20;;;21.00;;
23474;SDS011;11910;52.086;21.066;2022-10-17T01:47:25;26.60;;;19.95;;
23474;SDS011;11910;52.086;21.066;2022-10-17T01:49:55;27.70;;;20.00;;
23474;SDS011;11910;52.086;21.066;2022-10-17T01:52:31;27.33;;;20.85;;
23474;SDS011;11910;52.086;21.066;2022-10-17T01:55:05;26.20;;;20.67;;
23474;SDS011;11910;52.086;21.066;2022-10-17T01:57:40;28.60;;;21.88;;
23474;SDS011;11910;52.086;21.066;2022-10-17T02:00:11;28.08;;;22.10;;
23474;SDS011;11910;52.086;21.066;2022-10-17T02:02:42;29.35;;;23.70;;
23474;SDS011;11910;52.086;21.066;2022-10-17T02:05:11;33.90;;;24.17;;
23474;SDS011;11910;52.086;21.066;2022-10-17T02:07:37;29.50;;;23.73;;
23474;SDS011;11910;52.086;21.066;2022-10-17T02:10:08;30.25;;;23.90;;
23474;SDS011;11910;52.086;21.066;2022-10-17T02:12:50;28.98;;;21.63;;
23474;SDS011;11910;52.086;21.066;2022-10-17T02:18:21;25.55;;;19.08;;
23474;SDS011;11910;52.086;21.066;2022-10-17T02:21:06;28.40;;;21.85;;
23474;SDS011;11910;52.086;21.066;2022-10-17T02:26:28;30.90;;;22.08;;
23474;SDS011;11910;52.086;21.066;2022-10-17T02:32:12;19.13;;;15.40;;
23474;SDS011;11910;52.086;21.066;2022-10-17T02:34:26;19.50;;;16.42;;
23474;SDS011;11910;52.086;21.066;2022-10-17T02:36:57;21.90;;;17.00;;
23474;SDS011;11910;52.086;21.066;2022-10-17T02:39:26;20.77;;;15.30;;
23474;SDS011;11910;52.086;21.066;2022-10-17T02:41:52;24.48;;;17.40;;
23474;SDS011;11910;52.086;21.066;2022-10-17T02:44:22;21.45;;;16.80;;
23474;SDS011;11910;52.086;21.066;2022-10-17T02:46:58;25.90;;;20.63;;
23474;SDS011;11910;52.086;21.066;2022-10-17T02:49:30;21.02;;;16.73;;
23474;SDS011;11910;52.086;21.066;2022-10-17T02:52:13;21.73;;;16.77;;
23474;SDS011;11910;52.086;21.066;2022-10-17T02:57:17;22.23;;;18.23;;
23474;SDS011;11910;52.086;21.066;2022-10-17T03:00:04;24.80;;;17.83;;
23474;SDS011;11910;52.086;21.066;2022-10-17T03:02:51;27.65;;;19.80;;
23474;SDS011;11910;52.086;21.066;2022-10-17T03:05:19;29.52;;;19.98;;
23474;SDS011;11910;52.086;21.066;2022-10-17T03:07:46;20.65;;;17.50;;
23474;SDS011;11910;52.086;21.066;2022-10-17T03:10:12;25.73;;;18.55;;
23474;SDS011;11910;52.086;21.066;2022-10-17T03:12:37;24.00;;;18.25;;
23474;SDS011;11910;52.086;21.066;2022-10-17T03:15:03;27.33;;;20.52;;
23474;SDS011;11910;52.086;21.066;2022-10-17T03:17:29;27.00;;;18.25;;
23474;SDS011;11910;52.086;21.066;2022-10-17T03:19:55;23.38;;;18.65;;
23474;SDS011;11910;52.086;21.066;2022-10-17T03:22:21;23.45;;;20.13;;
23474;SDS011;11910;52.086;21.066;2022-10-17T03:24:47;27.40;;;21.55;;
23474;SDS011;11910;52.086;21.066;2022-10-17T03:27:12;24.58;;;18.98;;
23474;SDS011;11910;52.086;21.066;2022-10-17T03:29:38;24.13;;;16.77;;
23474;SDS011;11910;52.086;21.066;2022-10-17T03:32:04;25.98;;;18.20;;
23474;SDS011;11910;52.086;21.066;2022-10-17T03:34:29;27.08;;;20.48;;
23474;SDS011;11910;52.086;21.066;2022-10-17T03:36:55;27.00;;;20.98;;
23474;SDS011;11910;52.086;21.066;2022-10-17T03:39:21;26.88;;;20.50;;
23474;SDS011;11910;52.086;21.066;2022-10-17T03:41:46;26.85;;;21.98;;
23474;SDS011;11910;52.086;21.066;2022-10-17T03:44:12;26.45;;;20.95;;
23474;SDS011;11910;52.086;21.066;2022-10-17T03:46:38;28.88;;;22.60;;
23474;SDS011;11910;52.086;21.066;2022-10-17T03:49:03;28.17;;;22.55;;
23474;SDS011;11910;52.086;21.066;2022-10-17T03:51:29;28.02;;;21.02;;
23474;SDS011;11910;52.086;21.066;2022-10-17T03:53:56;27.98;;;21.83;;
23474;SDS011;11910;52.086;21.066;2022-10-17T03:56:22;31.08;;;23.33;;
23474;SDS011;11910;52.086;21.066;2022-10-17T03:58:49;40.30;;;28.77;;
23474;SDS011;11910;52.086;21.066;2022-10-17T04:01:15;31.67;;;23.10;;
23474;SDS011;11910;52.086;21.066;2022-10-17T04:03:42;29.88;;;20.85;;
23474;SDS011;11910;52.086;21.066;2022-10-17T04:06:08;27.13;;;19.83;;
23474;SDS011;11910;52.086;21.066;2022-10-17T04:08:36;27.42;;;21.67;;
23474;SDS011;11910;52.086;21.066;2022-10-17T04:11:02;24.17;;;19.55;;
23474;SDS011;11910;52.086;21.066;2022-10-17T04:13:31;24.67;;;18.83;;
23474;SDS011;11910;52.086;21.066;2022-10-17T04:15:58;25.50;;;19.67;;
23474;SDS011;11910;52.086;21.066;2022-10-17T04:18:25;22.50;;;18.85;;
23474;SDS011;11910;52.086;21.066;2022-10-17T04:20:52;29.50;;;21.08;;
23474;SDS011;11910;52.086;21.066;2022-10-17T04:23:18;28.13;;;20.77;;
23474;SDS011;11910;52.086;21.066;2022-10-17T04:25:44;23.55;;;18.55;;
23474;SDS011;11910;52.086;21.066;2022-10-17T04:28:10;22.45;;;18.38;;
23474;SDS011;11910;52.086;21.066;2022-10-17T04:30:36;25.50;;;19.75;;
23474;SDS011;11910;52.086;21.066;2022-10-17T04:33:01;27.08;;;21.38;;
23474;SDS011;11910;52.086;21.066;2022-10-17T04:35:27;27.50;;;20.33;;
23474;SDS011;11910;52.086;21.066;2022-10-17T04:37:53;20.77;;;16.60;;
23474;SDS011;11910;52.086;21.066;2022-10-17T04:40:18;21.73;;;17.27;;
23474;SDS011;11910;52.086;21.066;2022-10-17T04:42:44;24.95;;;19.60;;
23474;SDS011;11910;52.086;21.066;2022-10-17T04:45:10;24.75;;;20.05;;
23474;SDS011;11910;52.086;21.066;2022-10-17T04:47:36;21.45;;;16.88;;
23474;SDS011;11910;52.086;21.066;2022-10-17T04:50:02;23.13;;;18.67;;
23474;SDS011;11910;52.086;21.066;2022-10-17T04:52:28;21.80;;;16.58;;
23474;SDS011;11910;52.086;21.066;2022-10-17T04:54:53;20.83;;;17.23;;
23474;SDS011;11910;52.086;21.066;2022-10-17T04:57:19;24.15;;;17.40;;
23474;SDS011;11910;52.086;21.066;2022-10-17T04:59:45;23.50;;;19.08;;
23474;SDS011;11910;52.086;21.066;2022-10-17T05:02:11;29.08;;;20.00;;
23474;SDS011;11910;52.086;21.066;2022-10-17T05:04:36;26.00;;;19.13;;
23474;SDS011;11910;52.086;21.066;2022-10-17T05:07:02;22.10;;;18.92;;
23474;SDS011;11910;52.086;21.066;2022-10-17T05:09:28;25.50;;;19.08;;
23474;SDS011;11910;52.086;21.066;2022-10-17T05:11:53;27.88;;;20.45;;
23474;SDS011;11910;52.086;21.066;2022-10-17T05:14:19;20.70;;;16.88;;
23474;SDS011;11910;52.086;21.066;2022-10-17T05:16:45;22.00;;;17.40;;
23474;SDS011;11910;52.086;21.066;2022-10-17T05:19:10;22.08;;;17.85;;
23474;SDS011;11910;52.086;21.066;2022-10-17T05:21:36;31.35;;;19.50;;
23474;SDS011;11910;52.086;21.066;2022-10-17T05:24:09;31.67;;;20.95;;
23474;SDS011;11910;52.086;21.066;2022-10-17T05:26:37;34.00;;;20.58;;
23474;SDS011;11910;52.086;21.066;2022-10-17T05:29:03;31.52;;;22.40;;
23474;SDS011;11910;52.086;21.066;2022-10-17T05:31:29;27.33;;;20.27;;
23474;SDS011;11910;52.086;21.066;2022-10-17T05:33:59;33.75;;;20.98;;
23474;SDS011;11910;52.086;21.066;2022-10-17T05:36:28;31.55;;;20.88;;
23474;SDS011;11910;52.086;21.066;2022-10-17T05:38:53;30.90;;;19.98;;
23474;SDS011;11910;52.086;21.066;2022-10-17T05:41:19;25.25;;;19.13;;
23474;SDS011;11910;52.086;21.066;2022-10-17T05:43:45;25.25;;;17.73;;
23474;SDS011;11910;52.086;21.066;2022-10-17T05:46:11;29.42;;;19.90;;
23474;SDS011;11910;52.086;21.066;2022-10-17T05:48:36;30.08;;;20.25;;
23474;SDS011;11910;52.086;21.066;2022-10-17T05:51:06;31.75;;;22.15;;
23474;SDS011;11910;52.086;21.066;2022-10-17T05:53:34;26.42;;;19.45;;
23474;SDS011;11910;52.086;21.066;2022-10-17T05:56:02;32.97;;;20.83;;
23474;SDS011;11910;52.086;21.066;2022-10-17T05:58:30;28.45;;;20.10;;
23474;SDS011;11910;52.086;21.066;2022-10-17T06:00:57;36.38;;;22.90;;
23474;SDS011;11910;52.086;21.066;2022-10-17T06:03:24;29.55;;;20.52;;
23474;SDS011;11910;52.086;21.066;2022-10-17T06:05:50;29.35;;;21.35;;
23474;SDS011;11910;52.086;21.066;2022-10-17T06:08:16;27.73;;;21.50;;
23474;SDS011;11910;52.086;21.066;2022-10-17T06:10:42;33.75;;;23.38;;
23474;SDS011;11910;52.086;21.066;2022-10-17T06:13:07;34.17;;;21.63;;
23474;SDS011;11910;52.086;21.066;2022-10-17T06:15:33;42.60;;;24.75;;
23474;SDS011;11910;52.086;21.066;2022-10-17T06:17:59;33.88;;;23.30;;
23474;SDS011;11910;52.086;21.066;2022-10-17T06:20:24;34.47;;;26.00;;
23474;SDS011;11910;52.086;21.066;2022-10-17T06:22:50;38.88;;;26.80;;
23474;SDS011;11910;52.086;21.066;2022-10-17T06:25:15;36.80;;;26.58;;
23474;SDS011;11910;52.086;21.066;2022-10-17T06:27:41;42.05;;;28.33;;
23474;SDS011;11910;52.086;21.066;2022-10-17T06:30:07;35.03;;;25.33;;
23474;SDS011;11910;52.086;21.066;2022-10-17T06:32:33;46.45;;;29.58;;
23474;SDS011;11910;52.086;21.066;2022-10-17T06:34:58;45.13;;;31.50;;
23474;SDS011;11910;52.086;21.066;2022-10-17T06:37:24;45.50;;;30.92;;
23474;SDS011;11910;52.086;21.066;2022-10-17T06:39:50;43.72;;;29.13;;
23474;SDS011;11910;52.086;21.066;2022-10-17T06:42:15;53.17;;;32.20;;
23474;SDS011;11910;52.086;21.066;2022-10-17T06:44:41;48.83;;;33.40;;
23474;SDS011;11910;52.086;21.066;2022-10-17T06:47:07;46.35;;;32.28;;
23474;SDS011;11910;52.086;21.066;2022-10-17T06:49:33;49.35;;;33.83;;
23474;SDS011;11910;52.086;21.066;2022-10-17T06:51:59;48.95;;;34.88;;
23474;SDS011;11910;52.086;21.066;2022-10-17T06:54:25;54.30;;;32.33;;
23474;SDS011;11910;52.086;21.066;2022-10-17T06:56:51;39.90;;;31.17;;
23474;SDS011;11910;52.086;21.066;2022-10-17T06:59:17;42.88;;;31.27;;
23474;SDS011;11910;52.086;21.066;2022-10-17T07:01:43;45.47;;;32.17;;
23474;SDS011;11910;52.086;21.066;2022-10-17T07:04:08;40.95;;;30.35;;
23474;SDS011;11910;52.086;21.066;2022-10-17T07:06:34;43.10;;;30.75;;
23474;SDS011;11910;52.086;21.066;2022-10-17T07:09:00;35.35;;;28.77;;
23474;SDS011;11910;52.086;21.066;2022-10-17T07:11:30;36.60;;;29.63;;
23474;SDS011;11910;52.086;21.066;2022-10-17T07:13:56;33.97;;;28.60;;
23474;SDS011;11910;52.086;21.066;2022-10-17T07:16:22;39.17;;;27.77;;
23474;SDS011;11910;52.086;21.066;2022-10-17T07:18:48;41.20;;;29.80;;
23474;SDS011;11910;52.086;21.066;2022-10-17T07:21:15;32.13;;;26.42;;
23474;SDS011;11910;52.086;21.066;2022-10-17T07:23:41;31.65;;;26.02;;
23474;SDS011;11910;52.086;21.066;2022-10-17T07:26:15;32.90;;;27.25;;
23474;SDS011;11910;52.086;21.066;2022-10-17T07:28:42;32.33;;;26.35;;
23474;SDS011;11910;52.086;21.066;2022-10-17T07:31:10;34.40;;;26.05;;
23474;SDS011;11910;52.086;21.066;2022-10-17T07:33:39;33.13;;;25.70;;
23474;SDS011;11910;52.086;21.066;2022-10-17T07:36:05;30.25;;;24.90;;
23474;SDS011;11910;52.086;21.066;2022-10-17T07:38:31;30.50;;;24.73;;
23474;SDS011;11910;52.086;21.066;2022-10-17T07:40:58;32.88;;;24.33;;
23474;SDS011;11910;52.086;21.066;2022-10-17T07:43:25;32.42;;;24.80;;
23474;SDS011;11910;52.086;21.066;2022-10-17T07:45:52;30.40;;;24.67;;
23474;SDS011;11910;52.086;21.066;2022-10-17T07:48:18;29.48;;;23.65;;
23474;SDS011;11910;52.086;21.066;2022-10-17T07:50:45;30.02;;;23.00;;
23474;SDS011;11910;52.086;21.066;2022-10-17T07:53:11;27.60;;;22.73;;
23474;SDS011;11910;52.086;21.066;2022-10-17T07:55:39;28.85;;;22.65;;
23474;SDS011;11910;52.086;21.066;2022-10-17T07:58:06;31.73;;;23.17;;
23474;SDS011;11910;52.086;21.066;2022-10-17T08:00:33;28.92;;;21.73;;
23474;SDS011;11910;52.086;21.066;2022-10-17T08:02:59;31.05;;;22.52;;
23474;SDS011;11910;52.086;21.066;2022-10-17T08:05:27;27.25;;;22.05;;
23474;SDS011;11910;52.086;21.066;2022-10-17T08:07:53;25.63;;;21.77;;
23474;SDS011;11910;52.086;21.066;2022-10-17T08:10:18;27.27;;;21.33;;
23474;SDS011;11910;52.086;21.066;2022-10-17T08:12:45;25.33;;;21.20;;
23474;SDS011;11910;52.086;21.066;2022-10-17T08:15:13;27.95;;;21.45;;
23474;SDS011;11910;52.086;21.066;2022-10-17T08:17:38;24.63;;;20.13;;
23474;SDS011;11910;52.086;21.066;2022-10-17T08:20:04;27.50;;;20.38;;
23474;SDS011;11910;52.086;21.066;2022-10-17T08:22:37;26.88;;;20.23;;
23474;SDS011;11910;52.086;21.066;2022-10-17T08:25:03;26.98;;;19.25;;
23474;SDS011;11910;52.086;21.066;2022-10-17T08:27:31;22.95;;;19.48;;
23474;SDS011;11910;52.086;21.066;2022-10-17T08:29:57;22.70;;;19.75;;
23474;SDS011;11910;52.086;21.066;2022-10-17T08:32:24;23.23;;;19.30;;
23474;SDS011;11910;52.086;21.066;2022-10-17T08:34:52;22.20;;;19.08;;
23474;SDS011;11910;52.086;21.066;2022-10-17T08:37:20;25.02;;;19.77;;
23474;SDS011;11910;52.086;21.066;2022-10-17T08:39:46;26.50;;;19.80;;
23474;SDS011;11910;52.086;21.066;2022-10-17T08:42:24;24.08;;;18.58;;
23474;SDS011;11910;52.086;21.066;2022-10-17T08:45:19;24.13;;;19.10;;
23474;SDS011;11910;52.086;21.066;2022-10-17T08:47:51;24.13;;;19.63;;
23474;SDS011;11910;52.086;21.066;2022-10-17T08:50:26;24.92;;;18.80;;
23474;SDS011;11910;52.086;21.066;2022-10-17T08:53:11;23.00;;;18.15;;
23474;SDS011;11910;52.086;21.066;2022-10-17T08:55:41;22.70;;;18.27;;
23474;SDS011;11910;52.086;21.066;2022-10-17T08:58:14;26.17;;;19.02;;
23474;SDS011;11910;52.086;21.066;2022-10-17T09:07:03;20.50;;;18.33;;
23474;SDS011;11910;52.086;21.066;2022-10-17T09:12:30;25.17;;;17.95;;
23474;SDS011;11910;52.086;21.066;2022-10-17T09:23:53;23.38;;;17.35;;
23474;SDS011;11910;52.086;21.066;2022-10-17T09:26:34;20.23;;;17.25;;
23474;SDS011;11910;52.086;21.066;2022-10-17T09:29:04;21.05;;;16.30;;
23474;SDS011;11910;52.086;21.066;2022-10-17T09:31:42;23.40;;;16.50;;
23474;SDS011;11910;52.086;21.066;2022-10-17T09:34:14;19.77;;;16.50;;
23474;SDS011;11910;52.086;21.066;2022-10-17T09:36:40;21.45;;;16.90;;
23474;SDS011;11910;52.086;21.066;2022-10-17T09:41:45;19.02;;;16.25;;
23474;SDS011;11910;52.086;21.066;2022-10-17T09:49:51;23.13;;;16.17;;
23474;SDS011;11910;52.086;21.066;2022-10-17T09:58:11;22.92;;;15.85;;
23474;SDS011;11910;52.086;21.066;2022-10-17T10:00:41;23.73;;;15.90;;
23474;SDS011;11910;52.086;21.066;2022-10-17T10:06:02;19.00;;;15.65;;
23474;SDS011;11910;52.086;21.066;2022-10-17T10:08:31;19.15;;;16.23;;
23474;SDS011;11910;52.086;21.066;2022-10-17T10:11:02;20.80;;;15.77;;
23474;SDS011;11910;52.086;21.066;2022-10-17T10:13:31;18.50;;;14.80;;
23474;SDS011;11910;52.086;21.066;2022-10-17T10:16:58;21.75;;;14.90;;
23474;SDS011;11910;52.086;21.066;2022-10-17T10:18:56;18.85;;;15.82;;
23474;SDS011;11910;52.086;21.066;2022-10-17T10:21:43;18.02;;;15.63;;
23474;SDS011;11910;52.086;21.066;2022-10-17T10:24:18;20.45;;;15.38;;
23474;SDS011;11910;52.086;21.066;2022-10-17T10:32:15;17.15;;;15.25;;
23474;SDS011;11910;52.086;21.066;2022-10-17T10:35:07;17.48;;;14.60;;
23474;SDS011;11910;52.086;21.066;2022-10-17T10:37:44;23.73;;;15.27;;
23474;SDS011;11910;52.086;21.066;2022-10-17T10:42:55;17.63;;;14.82;;
23474;SDS011;11910;52.086;21.066;2022-10-17T10:48:04;17.15;;;14.55;;
23474;SDS011;11910;52.086;21.066;2022-10-17T10:50:43;20.27;;;14.75;;
23474;SDS011;11910;52.086;21.066;2022-10-17T10:53:49;17.75;;;15.10;;
23474;SDS011;11910;52.086;21.066;2022-10-17T10:56:19;17.58;;;14.48;;
23474;SDS011;11910;52.086;21.066;2022-10-17T11:01:40;19.63;;;15.25;;
23474;SDS011;11910;52.086;21.066;2022-10-17T11:04:20;17.73;;;15.70;;
23474;SDS011;11910;52.086;21.066;2022-10-17T11:07:22;21.40;;;14.75;;
23474;SDS011;11910;52.086;21.066;2022-10-17T11:12:42;19.08;;;15.80;;
23474;SDS011;11910;52.086;21.066;2022-10-17T11:15:17;18.67;;;14.85;;
23474;SDS011;11910;52.086;21.066;2022-10-17T11:17:49;19.38;;;15.15;;
23474;SDS011;11910;52.086;21.066;2022-10-17T11:20:24;18.13;;;15.43;;
23474;SDS011;11910;52.086;21.066;2022-10-17T11:23:00;17.25;;;14.38;;
23474;SDS011;11910;52.086;21.066;2022-10-17T11:25:58;19.17;;;14.60;;
23474;SDS011;11910;52.086;21.066;2022-10-17T11:28:28;16.58;;;14.32;;
23474;SDS011;11910;52.086;21.066;2022-10-17T11:33:44;19.08;;;14.35;;
23474;SDS011;11910;52.086;21.066;2022-10-17T11:36:10;15.93;;;13.10;;
23474;SDS011;11910;52.086;21.066;2022-10-17T11:38:45;15.88;;;13.57;;
23474;SDS011;11910;52.086;21.066;2022-10-17T11:41:34;19.42;;;13.68;;
23474;SDS011;11910;52.086;21.066;2022-10-17T11:44:04;18.77;;;13.48;;
23474;SDS011;11910;52.086;21.066;2022-10-17T11:46:31;19.10;;;14.52;;
23474;SDS011;11910;52.086;21.066;2022-10-17T11:54:37;15.48;;;13.60;;
23474;SDS011;11910;52.086;21.066;2022-10-17T12:09:03;20.48;;;14.32;;
23474;SDS011;11910;52.086;21.066;2022-10-17T12:11:56;17.73;;;13.95;;
23474;SDS011;11910;52.086;21.066;2022-10-17T12:17:22;19.55;;;14.27;;
23474;SDS011;11910;52.086;21.066;2022-10-17T12:28:29;17.63;;;14.10;;
23474;SDS011;11910;52.086;21.066;2022-10-17T12:38:44;17.50;;;13.68;;
23474;SDS011;11910;52.086;21.066;2022-10-17T12:41:11;18.02;;;13.70;;
23474;SDS011;11910;52.086;21.066;2022-10-17T12:43:44;15.98;;;14.25;;
23474;SDS011;11910;52.086;21.066;2022-10-17T12:58:04;19.52;;;13.63;;
23474;SDS011;11910;52.086;21.066;2022-10-17T13:02:43;15.50;;;13.43;;
23474;SDS011;11910;52.086;21.066;2022-10-17T13:05:13;16.52;;;14.82;;
23474;SDS011;11910;52.086;21.066;2022-10-17T13:07:46;17.77;;;14.38;;
23474;SDS011;11910;52.086;21.066;2022-10-17T13:10:18;23.00;;;14.23;;
23474;SDS011;11910;52.086;21.066;2022-10-17T13:12:46;16.35;;;14.52;;
23474;SDS011;11910;52.086;21.066;2022-10-17T13:15:15;20.48;;;15.45;;
23474;SDS011;11910;52.086;21.066;2022-10-17T13:17:43;19.08;;;14.88;;
23474;SDS011;11910;52.086;21.066;2022-10-17T13:20:19;18.58;;;14.90;;
23474;SDS011;11910;52.086;21.066;2022-10-17T13:22:49;19.40;;;14.55;;
23474;SDS011;11910;52.086;21.066;2022-10-17T13:25:16;19.02;;;14.40;;
23474;SDS011;11910;52.086;21.066;2022-10-17T13:27:43;20.17;;;14.32;;
23474;SDS011;11910;52.086;21.066;2022-10-17T13:30:24;21.02;;;14.93;;
23474;SDS011;11910;52.086;21.066;2022-10-17T13:32:54;16.13;;;14.43;;
23474;SDS011;11910;52.086;21.066;2022-10-17T13:35:30;17.35;;;15.35;;
23474;SDS011;11910;52.086;21.066;2022-10-17T13:37:59;19.25;;;14.88;;
23474;SDS011;11910;52.086;21.066;2022-10-17T13:40:29;19.67;;;15.13;;
23474;SDS011;11910;52.086;21.066;2022-10-17T13:42:56;18.45;;;15.40;;
23474;SDS011;11910;52.086;21.066;2022-10-17T13:45:29;17.58;;;14.75;;
23474;SDS011;11910;52.086;21.066;2022-10-17T13:50:31;20.48;;;14.85;;
23474;SDS011;11910;52.086;21.066;2022-10-17T13:53:04;20.05;;;14.68;;
23474;SDS011;11910;52.086;21.066;2022-10-17T13:55:35;19.40;;;15.15;;
23474;SDS011;11910;52.086;21.066;2022-10-17T13:58:08;17.92;;;15.02;;
23474;SDS011;11910;52.086;21.066;2022-10-17T14:00:39;20.42;;;15.68;;
23474;SDS011;11910;52.086;21.066;2022-10-17T14:03:04;18.08;;;14.25;;
23474;SDS011;11910;52.086;21.066;2022-10-17T14:05:30;21.88;;;14.38;;
23474;SDS011;11910;52.086;21.066;2022-10-17T14:08:12;25.48;;;16.17;;
23474;SDS011;11910;52.086;21.066;2022-10-17T14:10:41;18.45;;;14.90;;
23474;SDS011;11910;52.086;21.066;2022-10-17T14:13:14;18.20;;;15.73;;
23474;SDS011;11910;52.086;21.066;2022-10-17T14:15:58;22.63;;;14.75;;
23474;SDS011;11910;52.086;21.066;2022-10-17T14:18:26;18.63;;;14.80;;
23474;SDS011;11910;52.086;21.066;2022-10-17T14:21:01;19.00;;;15.10;;
23474;SDS011;11910;52.086;21.066;2022-10-17T14:23:33;18.30;;;15.98;;
23474;SDS011;11910;52.086;21.066;2022-10-17T14:26:08;20.63;;;16.08;;
23474;SDS011;11910;52.086;21.066;2022-10-17T14:28:34;21.23;;;16.10;;
23474;SDS011;11910;52.086;21.066;2022-10-17T14:33:44;21.50;;;16.65;;
23474;SDS011;11910;52.086;21.066;2022-10-17T14:36:11;22.90;;;17.35;;
23474;SDS011;11910;52.086;21.066;2022-10-17T14:38:38;20.27;;;16.95;;
23474;SDS011;11910;52.086;21.066;2022-10-17T14:43:51;22.40;;;17.13;;
23474;SDS011;11910;52.086;21.066;2022-10-17T14:46:18;23.17;;;17.35;;
23474;SDS011;11910;52.086;21.066;2022-10-17T14:48:44;22.73;;;17.80;;
23474;SDS011;11910;52.086;21.066;2022-10-17T14:51:15;25.13;;;18.27;;
23474;SDS011;11910;52.086;21.066;2022-10-17T14:53:43;19.83;;;17.70;;
23474;SDS011;11910;52.086;21.066;2022-10-17T14:56:26;18.95;;;16.95;;
23474;SDS011;11910;52.086;21.066;2022-10-17T14:59:35;23.42;;;18.35;;
23474;SDS011;11910;52.086;21.066;2022-10-17T15:02:07;25.00;;;19.17;;
23474;SDS011;11910;52.086;21.066;2022-10-17T15:04:33;23.75;;;17.88;;
23474;SDS011;11910;52.086;21.066;2022-10-17T15:07:02;30.75;;;20.48;;
23474;SDS011;11910;52.086;21.066;2022-10-17T15:09:30;25.37;;;19.43;;
23474;SDS011;11910;52.086;21.066;2022-10-17T15:12:16;25.35;;;18.33;;
23474;SDS011;11910;52.086;21.066;2022-10-17T15:14:43;27.13;;;20.17;;
23474;SDS011;11910;52.086;21.066;2022-10-17T15:17:28;26.58;;;16.75;;
23474;SDS011;11910;52.086;21.066;2022-10-17T15:20:01;20.33;;;16.55;;
23474;SDS011;11910;52.086;21.066;2022-10-17T15:22:27;26.85;;;17.67;;
23474;SDS011;11910;52.086;21.066;2022-10-17T15:24:58;26.27;;;17.83;;
23474;SDS011;11910;52.086;21.066;2022-10-17T15:27:46;22.02;;;16.63;;
23474;SDS011;11910;52.086;21.066;2022-10-17T15:30:18;25.77;;;16.85;;
23474;SDS011;11910;52.086;21.066;2022-10-17T15:32:54;25.00;;;19.05;;
23474;SDS011;11910;52.086;21.066;2022-10-17T15:35:23;21.63;;;17.13;;
23474;SDS011;11910;52.086;21.066;2022-10-17T15:37:49;31.55;;;20.85;;
23474;SDS011;11910;52.086;21.066;2022-10-17T15:40:27;29.67;;;19.48;;
23474;SDS011;11910;52.086;21.066;2022-10-17T15:42:56;23.05;;;16.95;;
23474;SDS011;11910;52.086;21.066;2022-10-17T15:45:21;29.65;;;19.35;;
23474;SDS011;11910;52.086;21.066;2022-10-17T15:47:54;22.70;;;17.10;;
23474;SDS011;11910;52.086;21.066;2022-10-17T15:50:24;22.42;;;16.98;;
23474;SDS011;11910;52.086;21.066;2022-10-17T15:52:52;28.48;;;17.25;;
23474;SDS011;11910;52.086;21.066;2022-10-17T15:55:18;24.00;;;17.38;;
23474;SDS011;11910;52.086;21.066;2022-10-17T15:57:44;30.70;;;17.52;;
23474;SDS011;11910;52.086;21.066;2022-10-17T16:00:21;24.70;;;17.20;;
23474;SDS011;11910;52.086;21.066;2022-10-17T16:02:48;25.80;;;17.42;;
23474;SDS011;11910;52.086;21.066;2022-10-17T16:05:21;28.48;;;18.00;;
23474;SDS011;11910;52.086;21.066;2022-10-17T16:07:50;25.05;;;17.27;;
23474;SDS011;11910;52.086;21.066;2022-10-17T16:10:21;23.15;;;18.25;;
23474;SDS011;11910;52.086;21.066;2022-10-17T16:12:57;23.73;;;17.13;;
23474;SDS011;11910;52.086;21.066;2022-10-17T16:15:23;25.92;;;17.52;;
23474;SDS011;11910;52.086;21.066;2022-10-17T16:17:58;24.33;;;17.77;;
23474;SDS011;11910;52.086;21.066;2022-10-17T16:20:24;32.92;;;22.08;;
23474;SDS011;11910;52.086;21.066;2022-10-17T16:22:50;27.50;;;18.35;;
23474;SDS011;11910;52.086;21.066;2022-10-17T16:25:20;26.65;;;18.90;;
23474;SDS011;11910;52.086;21.066;2022-10-17T16:27:50;30.90;;;18.55;;
23474;SDS011;11910;52.086;21.066;2022-10-17T16:30:21;23.70;;;16.40;;
23474;SDS011;11910;52.086;21.066;2022-10-17T16:32:48;25.25;;;16.63;;
23474;SDS011;11910;52.086;21.066;2022-10-17T16:35:18;22.67;;;17.52;;
23474;SDS011;11910;52.086;21.066;2022-10-17T16:37:45;24.30;;;17.83;;
23474;SDS011;11910;52.086;21.066;2022-10-17T16:40:11;25.00;;;18.48;;
23474;SDS011;11910;52.086;21.066;2022-10-17T16:42:38;28.48;;;19.05;;
23474;SDS011;11910;52.086;21.066;2022-10-17T16:45:04;32.00;;;19.67;;
23474;SDS011;11910;52.086;21.066;2022-10-17T16:47:30;31.80;;;18.55;;
23474;SDS011;11910;52.086;21.066;2022-10-17T16:49:56;31.90;;;22.52;;